createdAt,value
2022-09-18T09:02:43.903Z,99.90
2022-09-18T09:05:14.771Z,99.90
2022-09-18T09:10:38.909Z,99.90
2022-09-18T09:13:27.159Z,99.90
2022-09-18T09:16:00.393Z,99.90
2022-09-18T09:18:34.178Z,99.90
2022-09-18T09:21:15.117Z,99.90
2022-09-18T09:23:56.719Z,99.90
2022-09-18T09:26:45.272Z,99.90
2022-09-18T09:29:37.690Z,99.90
2022-09-18T09:32:19.113Z,99.90
2022-09-18T09:35:10.677Z,99.90
2022-09-18T09:37:49.204Z,99.90
2022-09-18T09:40:23.459Z,99.90
2022-09-18T09:42:57.065Z,99.90
2022-09-18T09:45:29.115Z,99.90
2022-09-18T09:48:04.758Z,99.90
2022-09-18T09:50:46.730Z,99.90
2022-09-18T10:26:32.849Z,99.90
2022-09-18T16:00:32.325Z,99.90
2022-09-18T16:03:05.568Z,94.90
2022-09-18T16:05:37.133Z,94.10
2022-09-18T16:26:27.802Z,93.70
2022-09-18T16:28:58.738Z,93.50
2022-09-18T16:31:29.046Z,93.40
2022-09-18T16:34:01.369Z,93.90
2022-09-18T16:36:34.877Z,93.40
2022-09-18T16:39:05.151Z,93.50
2022-09-18T16:41:33.577Z,93.50
2022-09-18T16:44:02.001Z,93.10
2022-09-18T16:46:35.596Z,93.40
2022-09-18T16:49:05.155Z,92.90
2022-09-18T16:51:33.498Z,93.20
2022-09-18T16:54:01.472Z,93.30
2022-09-18T16:56:32.798Z,93.50
2022-09-18T16:59:03.254Z,93.50
2022-09-18T17:01:43.706Z,93.30
2022-09-18T17:04:22.035Z,93.60
2022-09-18T17:06:50.230Z,93.60
2022-09-18T17:09:18.367Z,94.00
2022-09-18T17:11:46.589Z,94.30
2022-09-18T17:14:14.511Z,94.70
2022-09-18T19:41:33.366Z,94.80
2022-09-18T19:44:04.178Z,99.90
2022-09-18T19:46:33.288Z,99.90
2022-09-18T19:49:03.038Z,99.90
2022-09-18T19:51:32.277Z,99.90
2022-09-18T19:54:00.181Z,99.90
2022-09-18T19:56:42.635Z,99.90
2022-09-18T19:59:11.578Z,99.90
2022-09-18T20:01:39.702Z,99.90
2022-09-18T20:04:09.233Z,99.90
2022-09-18T20:06:38.739Z,99.90
2022-09-18T20:09:06.954Z,99.90
2022-09-18T20:11:35.160Z,99.90
2022-09-18T20:14:03.279Z,99.90
2022-09-18T20:16:31.301Z,99.90
2022-09-18T20:18:59.232Z,99.90
2022-09-18T20:21:29.665Z,99.90
2022-09-18T20:23:58.569Z,99.90
2022-09-18T20:26:26.948Z,99.90
2022-09-18T20:28:54.883Z,99.90
2022-09-18T20:31:23.810Z,99.90
2022-09-18T20:33:55.525Z,99.90
2022-09-18T20:36:25.540Z,99.90
2022-09-18T20:38:58.102Z,99.90
2022-09-18T20:41:28.222Z,99.90
2022-09-18T20:43:56.692Z,99.90
2022-09-18T20:46:27.312Z,99.90
2022-09-18T20:48:55.912Z,99.90
2022-09-18T20:51:27.520Z,99.90
2022-09-18T20:53:58.081Z,99.90
2022-09-18T20:56:27.477Z,99.90
2022-09-18T20:58:56.605Z,99.90
2022-09-18T21:01:27.686Z,99.90
2022-09-18T21:03:58.155Z,99.90
2022-09-18T21:06:28.065Z,99.90
2022-09-18T21:08:57.443Z,99.90
2022-09-18T21:11:28.245Z,99.90
2022-09-18T22:01:33.450Z,99.90
2022-09-18T22:04:02.853Z,99.90
